createdAt,value
2022-12-08T00:00:32.049Z,93.36
2022-12-08T00:05:52.650Z,92.89
2022-12-08T00:10:54.274Z,90.79
2022-12-08T00:16:00.784Z,91.65
2022-12-08T00:21:03.061Z,90.78
2022-12-08T00:26:05.193Z,89.99
2022-12-08T00:31:11.459Z,90.07
2022-12-08T00:36:14.928Z,90.97
2022-12-08T00:41:40.145Z,91.29
2022-12-08T00:46:42.592Z,89.10
2022-12-08T00:51:45.138Z,90.54
2022-12-08T00:56:46.913Z,90.72
2022-12-08T01:01:48.662Z,92.05
2022-12-08T01:06:50.507Z,91.67
2022-12-08T01:11:52.211Z,93.63
2022-12-08T01:16:53.965Z,93.65
2022-12-08T01:21:55.700Z,92.55
2022-12-08T01:26:57.446Z,93.69
2022-12-08T01:31:59.105Z,94.82
2022-12-08T01:37:01.223Z,95.30
2022-12-08T01:42:02.884Z,94.89
2022-12-08T01:47:04.621Z,95.60
2022-12-08T01:52:26.769Z,95.94
2022-12-08T01:57:34.466Z,96.72
2022-12-08T02:03:00.149Z,96.49
2022-12-08T02:08:08.200Z,97.08
2022-12-08T02:13:15.416Z,96.91
2022-12-08T02:18:19.928Z,97.17
2022-12-08T02:23:31.759Z,97.50
2022-12-08T02:29:09.941Z,97.38
2022-12-08T02:34:20.719Z,97.75
2022-12-08T02:39:42.103Z,97.98
2022-12-08T02:45:11.419Z,97.95
2022-12-08T02:50:13.416Z,96.96
2022-12-08T02:55:24.401Z,97.23
2022-12-08T03:00:29.613Z,97.20
2022-12-08T03:05:45.703Z,97.65
2022-12-08T03:11:02.062Z,94.32
2022-12-08T03:16:10.581Z,94.33
2022-12-08T03:21:16.398Z,94.08
2022-12-08T03:26:27.328Z,95.07
2022-12-08T03:31:33.525Z,96.18
2022-12-08T03:36:35.265Z,95.83
2022-12-08T03:41:37.608Z,95.16
2022-12-08T03:46:39.321Z,94.52
2022-12-08T03:51:40.957Z,94.16
2022-12-08T03:56:42.658Z,93.35
2022-12-08T04:01:44.371Z,93.04
2022-12-08T04:06:51.811Z,94.15
2022-12-08T04:11:55.340Z,93.53
2022-12-08T04:16:57.000Z,93.76
2022-12-08T04:21:58.669Z,94.14
2022-12-08T04:27:00.374Z,94.64
2022-12-08T04:32:09.189Z,95.24
2022-12-08T04:37:12.099Z,94.66
2022-12-08T04:42:13.748Z,97.21
2022-12-08T04:47:15.476Z,95.93
2022-12-08T04:52:17.097Z,96.13
2022-12-08T04:57:19.749Z,96.07
2022-12-08T05:02:21.631Z,96.75
2022-12-08T05:07:23.400Z,96.37
2022-12-08T05:12:25.420Z,97.39
2022-12-08T05:17:27.143Z,98.68
2022-12-08T05:22:28.761Z,98.57
2022-12-08T05:27:30.601Z,98.75
2022-12-08T05:32:32.286Z,97.02
2022-12-08T05:37:34.107Z,96.01
2022-12-08T05:42:35.752Z,97.20
2022-12-08T05:47:37.494Z,95.55
2022-12-08T05:52:39.201Z,96.38
2022-12-08T05:57:41.021Z,95.34
2022-12-08T06:02:42.862Z,95.84
2022-12-08T06:07:44.989Z,94.97
2022-12-08T06:12:46.783Z,95.47
2022-12-08T06:17:48.517Z,96.13
2022-12-08T06:22:50.346Z,95.95
2022-12-08T06:27:52.347Z,95.33
2022-12-08T06:32:54.457Z,95.06
2022-12-08T06:37:56.446Z,94.30
2022-12-08T06:42:58.118Z,94.81
2022-12-08T06:48:02.080Z,93.50
2022-12-08T06:53:05.747Z,94.79
2022-12-08T06:58:08.177Z,93.65
2022-12-08T07:03:11.576Z,93.67
2022-12-08T07:08:13.505Z,95.03
2022-12-08T07:13:15.566Z,94.19
2022-12-08T07:18:17.274Z,95.32
2022-12-08T07:23:19.265Z,95.29
2022-12-08T07:28:20.965Z,95.79
2022-12-08T07:33:22.588Z,96.42
2022-12-08T07:38:25.109Z,96.35
2022-12-08T07:43:29.892Z,96.79
2022-12-08T07:48:32.913Z,96.64
2022-12-08T07:53:34.970Z,96.34
2022-12-08T07:58:36.811Z,94.85
2022-12-08T08:03:38.596Z,94.58
2022-12-08T08:08:40.469Z,93.13
2022-12-08T08:13:42.430Z,92.35
2022-12-08T08:18:48.231Z,91.87
2022-12-08T08:23:49.934Z,92.64
2022-12-08T08:28:51.644Z,92.99
2022-12-08T08:33:53.960Z,94.69
2022-12-08T08:38:55.693Z,92.55
2022-12-08T08:43:57.316Z,93.39
2022-12-08T08:48:59.230Z,92.06
2022-12-08T08:54:00.904Z,91.69
2022-12-08T08:59:03.391Z,91.76
2022-12-08T09:04:05.442Z,91.50
2022-12-08T09:09:07.148Z,92.33
2022-12-08T09:14:11.997Z,91.50
2022-12-08T09:19:13.915Z,91.03
2022-12-08T09:24:16.467Z,90.17
2022-12-08T09:29:18.334Z,86.03
2022-12-08T09:34:20.075Z,87.02
2022-12-08T09:39:21.807Z,87.55
2022-12-08T09:44:48.332Z,85.24
2022-12-08T09:50:02.314Z,85.03
2022-12-08T09:55:12.961Z,85.00
2022-12-08T10:00:15.351Z,81.84
2022-12-08T10:05:17.235Z,80.27
2022-12-08T10:10:42.018Z,79.20
2022-12-08T10:16:11.081Z,77.80
2022-12-08T10:21:20.590Z,76.55
2022-12-08T10:26:22.587Z,75.45
2022-12-08T10:31:25.725Z,77.13
2022-12-08T10:36:50.162Z,75.41
2022-12-08T10:41:51.818Z,75.29
2022-12-08T10:46:53.691Z,74.44
2022-12-08T10:51:55.469Z,75.06
2022-12-08T10:56:57.706Z,74.50
2022-12-08T11:02:00.491Z,75.56
2022-12-08T11:07:04.711Z,71.20
2022-12-08T11:12:09.421Z,68.11
2022-12-08T11:17:11.093Z,69.63
2022-12-08T11:22:39.625Z,71.78
2022-12-08T11:27:47.400Z,71.52
2022-12-08T11:33:03.439Z,70.38
2022-12-08T11:38:21.249Z,70.29
2022-12-08T11:43:48.731Z,69.40
2022-12-08T11:48:53.473Z,71.80
2022-12-08T11:54:11.458Z,70.81
2022-12-08T11:59:38.430Z,69.00
2022-12-08T12:04:49.573Z,69.53
2022-12-08T12:09:54.198Z,70.34
2022-12-08T12:15:17.562Z,69.74
2022-12-08T12:20:47.181Z,68.10
2022-12-08T12:25:59.276Z,66.90
2022-12-08T12:31:08.365Z,67.03
2022-12-08T12:36:11.379Z,67.54
2022-12-08T12:41:14.833Z,67.70
2022-12-08T12:46:25.624Z,67.57
2022-12-08T12:51:39.420Z,68.24
2022-12-08T12:56:48.661Z,69.94
2022-12-08T13:01:56.714Z,69.04
2022-12-08T13:06:59.168Z,69.00
2022-12-08T13:12:10.272Z,67.61
2022-12-08T13:17:16.540Z,69.07
2022-12-08T13:22:46.479Z,69.51
2022-12-08T13:27:54.698Z,70.26
2022-12-08T13:38:26.442Z,69.78
2022-12-08T13:43:55.510Z,70.37
2022-12-08T14:00:14.567Z,70.44
2022-12-08T14:05:20.329Z,71.43
2022-12-08T14:10:27.772Z,71.77
2022-12-08T14:15:37.257Z,71.91
2022-12-08T14:21:12.093Z,72.20
2022-12-08T14:26:04.990Z,72.36
2022-12-08T14:31:08.359Z,74.03
2022-12-08T14:36:20.966Z,74.21
2022-12-08T14:41:31.932Z,75.39
2022-12-08T14:46:33.796Z,76.82
2022-12-08T14:51:36.863Z,77.56
2022-12-08T14:56:56.898Z,78.17
2022-12-08T15:02:26.414Z,78.57
2022-12-08T15:07:46.676Z,79.29
2022-12-08T15:13:11.416Z,79.61
2022-12-08T15:18:18.405Z,79.42
2022-12-08T15:23:27.251Z,80.54
2022-12-08T15:28:30.583Z,82.04
2022-12-08T15:33:32.463Z,81.33
2022-12-08T15:38:34.213Z,81.89
2022-12-08T15:43:35.978Z,84.21
2022-12-08T15:48:37.982Z,85.06
2022-12-08T15:53:39.693Z,84.88
2022-12-08T15:58:57.940Z,85.68
2022-12-08T16:09:36.313Z,85.06
2022-12-08T16:20:01.992Z,85.79
2022-12-08T16:25:17.745Z,85.04
2022-12-08T16:30:20.414Z,84.38
2022-12-08T16:35:22.061Z,85.24
2022-12-08T16:40:23.955Z,83.88
2022-12-08T16:45:30.112Z,82.33
2022-12-08T16:50:34.322Z,82.57
2022-12-08T16:55:35.936Z,80.19
2022-12-08T17:00:37.916Z,81.29
2022-12-08T17:05:40.948Z,81.93
2022-12-08T17:10:42.684Z,81.47
2022-12-08T17:15:44.281Z,80.80
2022-12-08T17:20:45.948Z,79.48
2022-12-08T17:25:58.657Z,80.52
2022-12-08T17:31:00.472Z,81.30
2022-12-08T17:36:02.171Z,80.03
2022-12-08T17:41:08.568Z,80.34
2022-12-08T17:46:10.361Z,80.73
2022-12-08T17:51:12.214Z,79.91
2022-12-08T17:56:17.583Z,79.53
2022-12-08T18:01:19.341Z,79.82
2022-12-08T18:06:21.264Z,79.64
2022-12-08T18:11:23.256Z,78.17
2022-12-08T18:16:29.206Z,80.99
2022-12-08T18:21:30.966Z,78.93
2022-12-08T18:26:33.132Z,80.46
2022-12-08T18:31:34.887Z,79.22
2022-12-08T18:36:36.570Z,78.94
2022-12-08T18:41:38.161Z,78.76
2022-12-08T18:46:39.903Z,79.21
2022-12-08T18:51:42.760Z,79.68
2022-12-08T18:56:44.392Z,78.16
2022-12-08T19:01:46.116Z,78.97
2022-12-08T19:06:47.816Z,78.36
2022-12-08T19:11:50.101Z,77.88
2022-12-08T19:16:51.994Z,77.93
2022-12-08T19:21:53.709Z,78.06
2022-12-08T19:26:55.364Z,76.75
2022-12-08T19:31:57.460Z,76.23
2022-12-08T19:36:59.229Z,75.63
2022-12-08T19:42:19.825Z,75.90
2022-12-08T19:47:24.008Z,76.20
2022-12-08T19:52:25.740Z,75.43
2022-12-08T19:57:27.468Z,75.84
2022-12-08T20:02:29.587Z,75.80
2022-12-08T20:07:31.618Z,76.31
2022-12-08T20:12:33.328Z,76.64
2022-12-08T20:17:35.115Z,78.30
2022-12-08T20:22:36.847Z,77.81
2022-12-08T20:27:38.631Z,78.41
2022-12-08T20:32:40.413Z,79.99
2022-12-08T20:37:42.782Z,82.06
2022-12-08T20:42:44.496Z,83.15
2022-12-08T20:47:46.191Z,83.97
2022-12-08T20:52:47.906Z,85.31
2022-12-08T20:57:49.776Z,88.54
2022-12-08T21:02:56.524Z,88.52
2022-12-08T21:07:59.031Z,90.19
2022-12-08T21:13:02.103Z,91.80
2022-12-08T21:18:04.123Z,91.08
2022-12-08T21:23:06.334Z,92.10
2022-12-08T21:28:08.115Z,93.98
2022-12-08T21:33:10.238Z,93.10
2022-12-08T21:38:12.470Z,95.94
2022-12-08T21:43:14.331Z,98.42
2022-12-08T21:48:16.444Z,99.26
2022-12-08T21:53:18.995Z,100.00
2022-12-08T21:58:20.952Z,100.00
2022-12-08T22:03:22.830Z,100.00
2022-12-08T22:08:24.916Z,100.00
2022-12-08T22:13:27.323Z,100.00
2022-12-08T22:18:29.392Z,100.00
2022-12-08T22:23:34.181Z,100.00
2022-12-08T22:28:39.591Z,100.00
2022-12-08T22:33:42.943Z,100.00
2022-12-08T22:38:44.856Z,100.00
2022-12-08T22:43:47.604Z,100.00
2022-12-08T22:48:50.067Z,100.00
2022-12-08T22:53:52.179Z,100.00
2022-12-08T22:58:54.132Z,100.00
2022-12-08T23:03:56.828Z,100.00
2022-12-08T23:08:59.383Z,99.57
2022-12-08T23:14:01.246Z,99.36
2022-12-08T23:19:03.122Z,100.00
2022-12-08T23:24:05.278Z,100.00
2022-12-08T23:29:07.071Z,98.92
2022-12-08T23:34:09.666Z,100.00
2022-12-08T23:39:11.870Z,100.00
2022-12-08T23:44:13.939Z,100.00
2022-12-08T23:49:15.972Z,100.00
2022-12-08T23:54:17.872Z,100.00
2022-12-08T23:59:19.584Z,100.00
